Time;durP1;ratioP1;P1;durP2;ratioP2;P2;SDS_P1;SDS_P2;PMS_P1;PMS_P2;Temp;Humidity;BMP_temperature;BMP_pressure;BME280_temperature;BME280_humidity;BME280_pressure;Samples;Min_cycle;Max_cycle;Signal;HPM_P1;HPM_P2
2024/02/12 00:00:35;;;;;;;8.45;2.67;;;7.40;99.90;;;;;;4947148;28;20035;-60
2024/02/12 00:03:02;;;;;;;7.72;2.55;;;7.30;99.90;;;;;;4950782;28;20023;-62
2024/02/12 00:05:28;;;;;;;7.82;2.90;;;7.20;99.90;;;;;;4933050;29;20034;-61
2024/02/12 00:07:54;;;;;;;11.40;3.10;;;7.20;99.90;;;;;;4950821;28;20562;-61
2024/02/12 00:10:20;;;;;;;7.82;2.60;;;7.20;99.90;;;;;;4949581;28;20030;-61
2024/02/12 00:12:45;;;;;;;6.95;2.63;;;7.20;99.90;;;;;;4948481;28;20043;-61
2024/02/12 00:15:12;;;;;;;8.07;3.17;;;7.10;99.90;;;;;;4951525;28;20035;-61
2024/02/12 00:17:40;;;;;;;10.32;2.83;;;7.10;99.90;;;;;;4950666;28;20110;-61
2024/02/12 00:20:10;;;;;;;8.93;2.58;;;7.10;99.90;;;;;;4947205;28;20619;-61
2024/02/12 00:22:40;;;;;;;7.45;2.83;;;7.00;99.90;;;;;;4948901;28;20015;-61
2024/02/12 00:25:07;;;;;;;9.70;3.13;;;7.00;99.90;;;;;;4947990;28;20570;-61
2024/02/12 00:27:34;;;;;;;8.48;3.05;;;7.10;99.90;;;;;;4946506;28;20059;-61
2024/02/12 00:30:00;;;;;;;12.82;3.28;;;7.10;99.90;;;;;;4946846;28;20099;-61
2024/02/12 00:32:28;;;;;;;11.05;3.05;;;7.10;99.90;;;;;;4950443;28;20036;-61
2024/02/12 00:34:57;;;;;;;10.52;3.60;;;7.10;99.90;;;;;;4946284;28;20042;-63
2024/02/12 00:37:25;;;;;;;9.35;3.38;;;7.00;99.90;;;;;;4950477;28;20023;-61
2024/02/12 00:39:54;;;;;;;9.23;3.30;;;7.00;99.90;;;;;;4950386;28;20015;-59
2024/02/12 00:42:19;;;;;;;10.18;4.13;;;7.00;99.90;;;;;;4947563;28;20046;-59
2024/02/12 00:44:45;;;;;;;13.02;5.35;;;7.10;99.90;;;;;;4946670;28;20032;-59
2024/02/12 00:47:11;;;;;;;12.43;4.60;;;7.10;99.90;;;;;;4950867;28;20110;-60
2024/02/12 00:49:40;;;;;;;13.73;5.30;;;7.20;99.90;;;;;;4950108;28;20150;-60
2024/02/12 00:52:07;;;;;;;14.32;5.07;;;7.20;99.90;;;;;;4948092;28;20035;-60
2024/02/12 00:54:35;;;;;;;15.15;5.63;;;7.30;99.90;;;;;;4946196;28;20045;-60
2024/02/12 00:57:01;;;;;;;17.40;6.18;;;7.20;99.90;;;;;;4948560;28;20031;-60
2024/02/12 00:59:26;;;;;;;17.27;6.20;;;7.20;99.90;;;;;;4948438;28;20034;-60
2024/02/12 01:01:52;;;;;;;17.27;6.78;;;7.10;99.90;;;;;;4953760;28;20062;-60
2024/02/12 01:04:19;;;;;;;16.25;6.70;;;7.20;99.90;;;;;;4950793;28;20031;-60
2024/02/12 01:06:45;;;;;;;15.07;6.05;;;7.30;99.90;;;;;;4952449;28;20035;-60
2024/02/12 01:09:12;;;;;;;17.50;7.10;;;7.20;99.90;;;;;;4953221;28;20039;-61
2024/02/12 01:11:38;;;;;;;18.35;7.28;;;7.20;99.90;;;;;;4949429;28;20086;-60
2024/02/12 01:14:04;;;;;;;18.15;7.53;;;7.20;99.90;;;;;;4950161;28;20106;-60
2024/02/12 01:16:32;;;;;;;21.67;8.35;;;7.20;99.90;;;;;;4950935;28;20023;-59
2024/02/12 01:18:58;;;;;;;23.65;8.20;;;7.20;99.90;;;;;;4950418;28;20039;-60
2024/02/12 01:21:25;;;;;;;19.40;8.27;;;7.10;99.90;;;;;;4951426;28;20427;-60
2024/02/12 01:23:51;;;;;;;19.08;8.43;;;7.00;99.90;;;;;;4952495;28;20045;-60
2024/02/12 01:26:16;;;;;;;23.88;9.70;;;7.10;99.90;;;;;;4950501;28;20023;-60
2024/02/12 01:28:42;;;;;;;22.38;9.45;;;7.10;99.90;;;;;;4952425;28;20050;-60
2024/02/12 01:31:17;;;;;;;24.40;9.90;;;7.20;99.90;;;;;;4933656;28;20517;-60
2024/02/12 01:33:47;;;;;;;20.65;9.48;;;7.20;99.90;;;;;;4949651;28;20028;-60
2024/02/12 01:36:13;;;;;;;24.98;10.48;;;7.20;99.90;;;;;;4934694;29;20034;-61
2024/02/12 01:38:40;;;;;;;24.55;10.60;;;7.20;99.90;;;;;;4952922;28;20118;-61
2024/02/12 01:41:06;;;;;;;24.80;11.38;;;7.30;99.90;;;;;;4949817;28;20031;-60
2024/02/12 01:43:34;;;;;;;26.98;11.15;;;7.30;99.90;;;;;;4948842;28;20047;-61
2024/02/12 01:46:00;;;;;;;26.35;10.27;;;7.30;99.90;;;;;;4952838;28;20512;-61
2024/02/12 01:48:30;;;;;;;24.67;9.85;;;7.30;99.90;;;;;;4951986;28;20051;-60
2024/02/12 01:50:58;;;;;;;29.85;12.52;;;7.30;99.90;;;;;;4950064;28;20609;-60
2024/02/12 01:53:25;;;;;;;29.83;12.38;;;7.40;99.90;;;;;;4950784;28;20415;-61
2024/02/12 01:55:50;;;;;;;34.63;13.85;;;7.40;99.90;;;;;;4950787;28;20459;-61
2024/02/12 01:58:17;;;;;;;32.22;12.90;;;7.40;99.90;;;;;;4950323;28;20034;-61
2024/02/12 02:00:48;;;;;;;30.63;11.25;;;7.40;99.90;;;;;;4950084;28;20113;-60
2024/02/12 02:03:17;;;;;;;35.03;12.00;;;7.40;99.90;;;;;;4951321;28;20027;-60
2024/02/12 02:05:45;;;;;;;24.90;9.82;;;7.40;99.90;;;;;;4950494;28;20085;-61
2024/02/12 02:08:11;;;;;;;32.17;12.77;;;7.40;99.90;;;;;;4950972;28;20098;-61
2024/02/12 02:10:38;;;;;;;23.98;8.93;;;7.40;99.90;;;;;;4949593;28;20507;-61
2024/02/12 02:13:06;;;;;;;34.65;13.27;;;7.50;99.90;;;;;;4949646;28;20027;-61
2024/02/12 02:15:32;;;;;;;37.63;13.25;;;7.60;99.90;;;;;;4944575;29;20027;-60
2024/02/12 02:17:58;;;;;;;25.65;9.73;;;7.60;99.90;;;;;;4948117;28;20031;-61
2024/02/12 02:20:25;;;;;;;37.17;14.70;;;7.60;99.90;;;;;;4938955;29;20047;-60
2024/02/12 02:22:52;;;;;;;34.60;13.45;;;7.60;99.90;;;;;;4949590;28;20094;-60
2024/02/12 02:25:20;;;;;;;24.13;10.77;;;7.60;99.90;;;;;;4951126;28;20014;-60
2024/02/12 02:27:46;;;;;;;32.90;13.93;;;7.60;99.90;;;;;;4950131;28;20037;-61
2024/02/12 02:30:12;;;;;;;37.40;13.80;;;7.60;99.90;;;;;;4949335;28;20031;-62
2024/02/12 02:32:39;;;;;;;34.72;13.13;;;7.50;99.90;;;;;;4933096;29;20035;-62
2024/02/12 02:35:05;;;;;;;33.53;13.88;;;7.50;99.90;;;;;;4949719;28;20027;-61
2024/02/12 02:37:31;;;;;;;36.95;16.02;;;7.50;99.90;;;;;;4949650;28;20088;-61
2024/02/12 02:39:57;;;;;;;40.20;16.63;;;7.50;99.90;;;;;;4951275;28;20390;-61
2024/02/12 02:42:23;;;;;;;41.75;14.73;;;7.50;99.90;;;;;;4953457;28;20029;-61
2024/02/12 02:44:48;;;;;;;38.22;14.73;;;7.50;99.90;;;;;;4946559;28;20049;-62
2024/02/12 02:47:16;;;;;;;28.65;10.60;;;7.50;99.90;;;;;;4950996;28;20395;-60
2024/02/12 02:49:42;;;;;;;34.92;14.07;;;7.50;99.90;;;;;;4949265;28;20543;-60
2024/02/12 02:52:07;;;;;;;31.67;13.25;;;7.50;99.90;;;;;;4949408;28;20043;-60
2024/02/12 02:54:33;;;;;;;35.78;13.93;;;7.50;99.90;;;;;;4948239;28;20736;-60
2024/02/12 02:56:59;;;;;;;35.38;15.52;;;7.50;99.90;;;;;;4950996;28;20030;-60
2024/02/12 02:59:25;;;;;;;36.65;15.02;;;7.40;99.90;;;;;;4948847;28;20033;-61
2024/02/12 03:01:51;;;;;;;35.40;13.60;;;7.40;99.90;;;;;;4934440;29;20031;-60
2024/02/12 03:04:17;;;;;;;34.25;11.13;;;7.40;99.90;;;;;;4945195;28;20038;-59
2024/02/12 03:06:43;;;;;;;32.08;12.35;;;7.40;99.90;;;;;;4950232;28;20035;-61
2024/02/12 03:09:10;;;;;;;29.40;11.38;;;7.40;99.90;;;;;;4932596;28;20078;-59
2024/02/12 03:11:37;;;;;;;42.03;15.52;;;7.50;99.90;;;;;;4948835;28;20458;-59
2024/02/12 03:14:03;;;;;;;37.55;15.30;;;7.40;99.90;;;;;;4948384;28;20027;-60
2024/02/12 03:16:29;;;;;;;43.13;16.85;;;7.40;99.90;;;;;;4949800;28;20672;-61
2024/02/12 03:18:55;;;;;;;27.20;10.18;;;7.40;99.90;;;;;;4947405;28;20051;-61
2024/02/12 03:21:22;;;;;;;34.45;11.90;;;7.30;99.90;;;;;;4947490;28;20023;-61
2024/02/12 03:23:48;;;;;;;36.03;13.90;;;7.30;99.90;;;;;;4947508;28;20412;-62
2024/02/12 03:26:15;;;;;;;34.05;16.95;;;7.30;99.90;;;;;;4947112;28;20027;-61
2024/02/12 03:28:41;;;;;;;37.67;15.88;;;7.40;99.90;;;;;;4949479;28;20025;-60
2024/02/12 03:31:07;;;;;;;42.88;14.75;;;7.30;99.90;;;;;;4949567;28;20090;-60
2024/02/12 03:33:33;;;;;;;37.90;14.23;;;7.30;99.90;;;;;;4947192;28;20476;-60
2024/02/12 03:36:00;;;;;;;33.85;11.43;;;7.30;99.90;;;;;;4949494;28;20121;-60
2024/02/12 03:38:26;;;;;;;26.90;12.18;;;7.30;99.90;;;;;;4947211;28;20023;-60
2024/02/12 03:40:53;;;;;;;37.00;13.05;;;7.30;99.90;;;;;;4949135;28;20031;-60
2024/02/12 03:43:22;;;;;;;47.35;17.02;;;7.30;99.90;;;;;;4948097;28;20111;-61
2024/02/12 03:45:49;;;;;;;41.92;16.23;;;7.30;99.90;;;;;;4949238;28;20473;-60
2024/02/12 04:01:56;;;;;;;49.38;17.30;;;7.30;99.90;;;;;;4947431;28;20066;-61
2024/02/12 04:04:21;;;;;;;43.53;18.25;;;7.20;99.90;;;;;;4948837;29;20131;-61
2024/02/12 04:06:47;;;;;;;45.30;18.48;;;7.30;99.90;;;;;;4950277;28;20122;-61
2024/02/12 04:09:13;;;;;;;40.95;17.42;;;7.30;99.90;;;;;;4948511;29;20106;-62
2024/02/12 04:11:42;;;;;;;41.75;17.75;;;7.30;99.90;;;;;;4949630;28;20047;-61
2024/02/12 04:14:09;;;;;;;46.30;18.30;;;7.30;99.90;;;;;;4950255;29;20038;-61
2024/02/12 04:16:36;;;;;;;42.97;17.27;;;7.30;99.90;;;;;;4948902;29;20023;-61
2024/02/12 04:19:03;;;;;;;44.65;14.90;;;7.30;99.90;;;;;;4948891;29;20043;-61
2024/02/12 04:21:31;;;;;;;45.97;17.42;;;7.30;99.90;;;;;;4947069;29;20031;-62
2024/02/12 04:23:57;;;;;;;45.17;16.13;;;7.30;99.90;;;;;;4951263;28;20073;-61
2024/02/12 04:26:23;;;;;;;46.53;18.30;;;7.30;99.90;;;;;;4948719;29;20031;-61
2024/02/12 04:28:49;;;;;;;46.67;18.27;;;7.30;99.90;;;;;;4949307;28;20045;-61
2024/02/12 04:31:15;;;;;;;43.13;17.73;;;7.30;99.90;;;;;;4949365;29;20054;-61
2024/02/12 04:33:41;;;;;;;43.45;17.58;;;7.30;99.90;;;;;;4949590;28;20109;-61
2024/02/12 04:36:14;;;;;;;44.63;17.73;;;7.30;99.90;;;;;;4953367;29;20539;-62
2024/02/12 04:38:40;;;;;;;49.65;18.67;;;7.30;99.90;;;;;;4953014;29;20032;-62
2024/02/12 04:41:06;;;;;;;52.45;18.75;;;7.30;99.90;;;;;;4953337;29;20042;-62
2024/02/12 04:43:35;;;;;;;52.42;18.02;;;7.30;99.90;;;;;;4954086;28;20031;-61
2024/02/12 04:46:01;;;;;;;51.15;19.55;;;7.30;99.90;;;;;;4955694;28;20027;-61
2024/02/12 04:48:27;;;;;;;44.60;18.83;;;7.30;99.90;;;;;;4952247;29;20110;-61
2024/02/12 04:50:53;;;;;;;41.78;15.00;;;7.30;99.90;;;;;;4952042;29;20047;-61
2024/02/12 04:53:18;;;;;;;51.67;21.42;;;7.30;99.90;;;;;;4952121;29;20090;-60
2024/02/12 04:55:45;;;;;;;33.72;12.60;;;7.30;99.90;;;;;;4952186;29;20037;-61
2024/02/12 04:58:11;;;;;;;51.35;18.10;;;7.30;99.90;;;;;;4952025;29;20547;-60
2024/02/12 05:00:37;;;;;;;35.70;14.52;;;7.30;99.90;;;;;;4952979;29;20106;-60
2024/02/12 05:03:03;;;;;;;42.00;15.98;;;7.30;99.90;;;;;;4952352;29;20019;-60
2024/02/12 05:05:29;;;;;;;54.63;19.88;;;7.30;99.90;;;;;;4952650;29;20031;-60
2024/02/12 05:07:55;;;;;;;57.88;20.73;;;7.30;99.90;;;;;;4952796;29;20526;-60
2024/02/12 05:10:21;;;;;;;48.92;18.73;;;7.30;99.90;;;;;;4952332;29;20035;-60
2024/02/12 05:12:47;;;;;;;47.47;18.17;;;7.30;99.90;;;;;;4952672;29;20031;-60
2024/02/12 05:15:13;;;;;;;40.80;16.20;;;7.30;99.90;;;;;;4952546;29;20210;-60
2024/02/12 05:17:52;;;;;;;46.88;16.70;;;7.30;99.90;;;;;;4952150;29;20019;-60
2024/02/12 05:23:03;;;;;;;46.92;17.77;;;7.30;99.90;;;;;;4951046;29;20078;-60
2024/02/12 05:25:30;;;;;;;31.27;12.85;;;7.20;99.90;;;;;;4951762;29;20115;-60
2024/02/12 05:27:55;;;;;;;39.75;16.50;;;7.20;99.90;;;;;;4952452;29;20109;-60
2024/02/12 05:30:21;;;;;;;39.67;14.85;;;7.20;99.90;;;;;;4951754;29;20093;-60
2024/02/12 05:32:46;;;;;;;38.03;13.25;;;7.10;99.90;;;;;;4954151;28;20061;-60
2024/02/12 05:35:12;;;;;;;37.30;14.98;;;7.00;99.90;;;;;;4951971;29;20081;-60
2024/02/12 05:37:38;;;;;;;34.40;13.07;;;7.00;99.90;;;;;;4952791;29;20038;-60
2024/02/12 05:40:07;;;;;;;34.10;14.32;;;6.90;99.90;;;;;;4952127;28;20028;-60
2024/02/12 05:42:33;;;;;;;37.75;14.27;;;7.00;99.90;;;;;;4952188;29;20037;-61
2024/02/12 05:44:59;;;;;;;36.15;14.23;;;6.90;99.90;;;;;;4951067;28;20027;-61
2024/02/12 05:47:24;;;;;;;37.50;14.43;;;7.00;99.90;;;;;;4950549;29;20110;-61
2024/02/12 05:49:50;;;;;;;33.33;14.30;;;6.90;99.90;;;;;;4956150;28;20038;-61
2024/02/12 05:52:16;;;;;;;34.72;13.73;;;6.90;99.90;;;;;;4950411;29;20075;-61
2024/02/12 05:54:41;;;;;;;29.33;12.27;;;6.90;99.90;;;;;;4951519;29;20063;-62
2024/02/12 05:57:09;;;;;;;29.50;11.57;;;7.00;99.90;;;;;;4952202;29;20019;-61
2024/02/12 05:59:35;;;;;;;30.13;12.73;;;7.00;99.90;;;;;;4951078;29;20019;-61
2024/02/12 06:02:04;;;;;;;30.73;11.70;;;7.00;99.90;;;;;;4951642;29;20054;-61
2024/02/12 06:04:30;;;;;;;30.42;12.13;;;6.90;99.90;;;;;;4951317;29;20090;-61
2024/02/12 06:06:59;;;;;;;27.77;11.82;;;6.90;99.90;;;;;;4932305;29;20023;-61
2024/02/12 06:09:26;;;;;;;31.65;9.85;;;6.80;99.90;;;;;;4950771;29;20023;-61
2024/02/12 06:11:51;;;;;;;37.47;10.68;;;6.70;99.90;;;;;;4952167;29;20642;-61
2024/02/12 06:14:18;;;;;;;31.85;13.48;;;6.70;99.90;;;;;;4939329;29;20114;-61
2024/02/12 06:16:44;;;;;;;33.80;13.27;;;6.70;99.90;;;;;;4951834;29;20082;-61
2024/02/12 06:19:09;;;;;;;33.03;14.38;;;6.60;99.90;;;;;;4950810;29;20043;-61
2024/02/12 06:21:35;;;;;;;40.78;15.07;;;6.60;99.90;;;;;;4949938;29;20031;-61
2024/02/12 06:24:03;;;;;;;39.55;14.38;;;6.50;99.90;;;;;;4933586;29;20035;-61
2024/02/12 06:26:28;;;;;;;39.33;15.05;;;6.40;99.90;;;;;;4950886;29;20035;-61
2024/02/12 06:28:54;;;;;;;33.28;13.60;;;6.30;99.90;;;;;;4950939;29;20023;-61
2024/02/12 06:31:19;;;;;;;38.03;13.82;;;6.20;99.90;;;;;;4949371;29;20494;-61
2024/02/12 06:33:45;;;;;;;34.88;13.98;;;6.10;99.90;;;;;;4950388;29;20019;-61
2024/02/12 06:36:11;;;;;;;35.88;14.18;;;6.00;99.90;;;;;;4949406;29;20075;-63
2024/02/12 06:38:38;;;;;;;44.75;14.52;;;5.90;99.90;;;;;;4950973;28;20023;-61
2024/02/12 06:41:04;;;;;;;38.47;14.20;;;5.80;99.90;;;;;;4946851;28;20031;-61
2024/02/12 06:43:29;;;;;;;40.60;14.60;;;5.80;99.90;;;;;;4949259;29;20027;-62
2024/02/12 06:45:55;;;;;;;43.70;14.85;;;5.70;99.90;;;;;;4948692;29;20583;-61
2024/02/12 06:48:21;;;;;;;40.65;15.35;;;5.80;99.90;;;;;;4949021;29;20058;-61
2024/02/12 06:50:46;;;;;;;38.45;15.45;;;5.70;99.90;;;;;;4948353;29;20106;-60
2024/02/12 06:53:12;;;;;;;46.03;16.98;;;5.70;99.90;;;;;;4948038;29;20027;-61
2024/02/12 06:55:38;;;;;;;38.13;14.35;;;5.70;99.90;;;;;;4948238;29;20043;-61
2024/02/12 06:58:03;;;;;;;44.92;17.30;;;5.80;99.90;;;;;;4949195;28;20360;-60
2024/02/12 07:00:29;;;;;;;44.13;15.27;;;5.90;99.90;;;;;;4948635;29;20028;-60
2024/02/12 07:02:55;;;;;;;49.95;15.60;;;5.90;99.90;;;;;;4949156;29;20023;-61
2024/02/12 07:05:21;;;;;;;46.38;15.88;;;6.00;99.90;;;;;;4948832;29;20022;-60
2024/02/12 07:07:47;;;;;;;41.80;15.60;;;6.00;99.90;;;;;;4949056;29;20633;-60
2024/02/12 07:10:13;;;;;;;37.63;13.63;;;6.20;99.90;;;;;;4931484;29;20085;-60
2024/02/12 07:12:39;;;;;;;35.10;15.32;;;6.30;99.90;;;;;;4949455;29;20039;-60
2024/02/12 07:15:09;;;;;;;30.55;13.95;;;6.40;99.90;;;;;;4944762;29;20071;-60
2024/02/12 07:17:35;;;;;;;37.53;15.73;;;6.40;99.90;;;;;;4948632;29;20047;-60
2024/02/12 07:20:07;;;;;;;36.28;13.55;;;6.50;99.90;;;;;;4951347;28;20055;-60
2024/02/12 07:22:32;;;;;;;38.67;14.73;;;6.50;99.90;;;;;;4947329;29;20118;-62
2024/02/12 07:24:59;;;;;;;38.88;15.48;;;6.60;99.90;;;;;;4944551;29;20821;-59
2024/02/12 07:27:25;;;;;;;37.13;13.68;;;6.70;99.90;;;;;;4947083;29;20113;-60
2024/02/12 07:29:51;;;;;;;37.63;14.38;;;6.70;99.90;;;;;;4948563;29;20171;-59
2024/02/12 07:32:17;;;;;;;32.90;12.90;;;6.80;99.90;;;;;;4932410;29;20027;-59
2024/02/12 07:34:44;;;;;;;41.88;16.88;;;6.80;99.90;;;;;;4948527;29;20030;-59
2024/02/12 07:37:10;;;;;;;42.85;16.67;;;6.90;99.90;;;;;;4948250;29;20046;-59
2024/02/12 07:39:39;;;;;;;30.98;12.70;;;6.90;99.90;;;;;;4944099;29;20523;-59
2024/02/12 07:42:07;;;;;;;39.72;16.02;;;6.90;99.90;;;;;;4948311;29;20032;-59
2024/02/12 07:44:33;;;;;;;44.20;15.73;;;7.00;99.90;;;;;;4947663;29;20557;-60
2024/02/12 07:46:59;;;;;;;47.60;17.45;;;6.80;99.90;;;;;;4946548;29;20939;-60
2024/02/12 07:49:24;;;;;;;47.15;17.38;;;7.00;99.90;;;;;;4946442;29;20102;-60
2024/02/12 07:51:50;;;;;;;48.22;17.75;;;7.00;99.90;;;;;;4947274;29;20116;-60
2024/02/12 07:54:16;;;;;;;43.05;16.52;;;7.00;99.90;;;;;;4947586;29;20015;-60
2024/02/12 07:56:42;;;;;;;37.95;14.32;;;7.20;99.90;;;;;;4931412;29;20050;-60
2024/02/12 07:59:08;;;;;;;48.55;18.83;;;7.20;99.90;;;;;;4948673;29;20329;-60
2024/02/12 08:01:34;;;;;;;46.22;19.05;;;7.30;99.90;;;;;;4947947;29;20027;-60
2024/02/12 08:03:59;;;;;;;48.22;18.80;;;7.30;99.90;;;;;;4946392;29;20043;-60
2024/02/12 08:06:25;;;;;;;42.30;17.05;;;7.30;99.90;;;;;;4946242;29;20024;-60
2024/02/12 08:08:51;;;;;;;48.95;18.75;;;7.40;99.90;;;;;;4947909;28;20531;-60
2024/02/12 08:11:17;;;;;;;46.03;18.80;;;7.40;99.90;;;;;;4946445;29;20074;-59
2024/02/12 08:13:44;;;;;;;51.72;18.90;;;7.30;99.90;;;;;;4951434;29;20027;-60
2024/02/12 08:16:09;;;;;;;45.80;19.05;;;7.30;99.90;;;;;;4951990;29;20081;-60
2024/02/12 08:18:36;;;;;;;46.50;18.52;;;7.30;99.90;;;;;;4951695;29;20051;-60
2024/02/12 08:21:01;;;;;;;46.30;17.58;;;7.20;99.90;;;;;;4950550;29;20090;-60
2024/02/12 08:23:27;;;;;;;42.65;16.23;;;7.20;99.90;;;;;;4951918;28;20023;-59
2024/02/12 08:25:53;;;;;;;43.05;16.95;;;7.30;99.90;;;;;;4952947;28;20074;-59
2024/02/12 08:28:22;;;;;;;36.33;16.58;;;7.30;99.90;;;;;;4949443;29;20059;-60
2024/02/12 08:30:48;;;;;;;41.30;17.15;;;7.40;99.90;;;;;;4951358;29;20032;-60
2024/02/12 08:33:14;;;;;;;41.83;16.58;;;7.50;99.90;;;;;;4951591;29;20051;-60
2024/02/12 08:35:40;;;;;;;34.95;14.27;;;7.50;99.90;;;;;;4950573;29;20092;-60
2024/02/12 08:38:08;;;;;;;41.45;14.98;;;7.60;99.90;;;;;;4951470;29;20028;-61
2024/02/12 08:40:34;;;;;;;40.30;16.98;;;7.70;99.90;;;;;;4951815;29;20028;-61
2024/02/12 08:43:00;;;;;;;42.22;15.43;;;7.70;99.90;;;;;;4948027;29;20063;-61
2024/02/12 08:45:25;;;;;;;40.80;16.70;;;7.70;99.90;;;;;;4936960;29;20028;-60
2024/02/12 08:47:51;;;;;;;38.13;15.52;;;7.80;99.90;;;;;;4951981;29;20448;-60
2024/02/12 08:50:17;;;;;;;36.42;14.52;;;7.80;99.90;;;;;;4951862;29;20052;-60
2024/02/12 08:52:43;;;;;;;32.88;14.48;;;7.80;99.90;;;;;;4931966;29;20046;-60
2024/02/12 08:55:11;;;;;;;33.20;13.90;;;7.90;99.90;;;;;;4951936;29;20096;-60
2024/02/12 08:57:41;;;;;;;34.67;14.48;;;8.10;99.90;;;;;;4951759;29;20031;-60
2024/02/12 09:00:10;;;;;;;;;;;8.10;99.90;;;;;;4951942;29;20050;-60
2024/02/12 09:02:36;;;;;;;40.58;14.13;;;8.10;99.90;;;;;;4947246;28;19913;-60
2024/02/12 09:05:03;;;;;;;31.30;13.82;;;8.10;99.90;;;;;;4954121;28;20541;-60
2024/02/12 09:07:29;;;;;;;37.03;14.98;;;8.10;99.90;;;;;;4947482;28;20479;-60
2024/02/12 09:09:54;;;;;;;31.02;13.32;;;8.20;99.90;;;;;;4933506;28;20055;-62
2024/02/12 09:12:20;;;;;;;36.30;14.45;;;8.10;99.90;;;;;;4952471;28;20423;-61
2024/02/12 09:14:46;;;;;;;32.65;14.00;;;8.10;99.90;;;;;;4934290;29;20083;-60
2024/02/12 09:17:15;;;;;;;31.83;14.38;;;8.20;99.90;;;;;;4950677;28;20403;-60
2024/02/12 09:19:44;;;;;;;35.67;12.85;;;8.20;99.90;;;;;;4951443;28;20047;-60
2024/02/12 09:22:10;;;;;;;38.40;14.73;;;8.20;99.90;;;;;;4949727;28;20607;-60
2024/02/12 09:24:41;;;;;;;30.23;13.07;;;8.10;99.90;;;;;;4949602;28;20063;-61
2024/02/12 09:27:07;;;;;;;28.23;11.10;;;8.00;99.90;;;;;;4950912;28;20026;-60
2024/02/12 09:29:34;;;;;;;33.78;13.93;;;8.00;99.90;;;;;;4949849;28;20235;-60
2024/02/12 09:32:02;;;;;;;35.85;13.20;;;8.00;99.90;;;;;;4951464;28;20035;-60
2024/02/12 09:34:28;;;;;;;34.58;14.95;;;8.00;99.90;;;;;;4949328;28;20039;-60
2024/02/12 09:36:54;;;;;;;32.90;13.13;;;8.00;99.90;;;;;;4951669;28;20094;-61
2024/02/12 09:39:20;;;;;;;32.33;13.70;;;8.00;99.90;;;;;;4953346;28;20047;-60
2024/02/12 09:41:47;;;;;;;33.72;12.55;;;8.00;99.90;;;;;;4950790;28;20367;-60
2024/02/12 09:44:17;;;;;;;32.67;13.98;;;7.90;99.90;;;;;;4950109;28;20099;-61
2024/02/12 09:46:48;;;;;;;34.97;14.40;;;7.90;99.90;;;;;;4951037;28;20102;-60
2024/02/12 09:49:16;;;;;;;34.25;14.57;;;7.90;99.90;;;;;;4952167;28;20031;-60
2024/02/12 09:51:46;;;;;;;36.70;15.02;;;7.90;99.90;;;;;;4947652;28;20511;-60
2024/02/12 09:54:12;;;;;;;37.50;15.60;;;7.90;99.90;;;;;;4950674;28;20054;-61
2024/02/12 09:56:38;;;;;;;38.15;14.75;;;7.90;99.90;;;;;;4950280;28;20099;-60
2024/02/12 09:59:04;;;;;;;30.67;11.40;;;7.90;99.90;;;;;;4950242;28;20031;-60
2024/02/12 10:01:30;;;;;;;34.25;14.50;;;7.90;99.90;;;;;;4950162;28;20118;-61
2024/02/12 10:03:56;;;;;;;36.65;14.70;;;7.90;99.90;;;;;;4951410;28;20029;-61
2024/02/12 10:06:22;;;;;;;31.35;13.85;;;8.00;99.90;;;;;;4948868;28;20998;-61
2024/02/12 10:08:49;;;;;;;34.00;15.57;;;8.10;99.90;;;;;;4947132;28;20070;-61
2024/02/12 10:11:24;;;;;;;34.50;14.25;;;8.10;99.90;;;;;;4950237;28;20015;-60
2024/02/12 10:13:50;;;;;;;32.25;15.27;;;8.20;99.90;;;;;;4951070;28;20068;-61
2024/02/12 10:16:16;;;;;;;34.30;14.90;;;8.20;99.90;;;;;;4952504;28;20042;-61
2024/02/12 10:18:43;;;;;;;33.30;13.57;;;8.50;99.90;;;;;;4949627;28;20492;-61
2024/02/12 10:21:10;;;;;;;34.90;14.95;;;8.50;99.90;;;;;;4948850;28;20910;-61
2024/02/12 10:23:36;;;;;;;39.30;13.70;;;8.60;99.90;;;;;;4948583;28;20464;-61
2024/02/12 10:26:02;;;;;;;28.52;11.80;;;8.60;99.90;;;;;;4950376;28;20134;-61
2024/02/12 10:28:28;;;;;;;31.90;10.77;;;8.60;99.90;;;;;;4932550;29;20035;-61
2024/02/12 10:30:53;;;;;;;36.28;14.57;;;8.50;99.90;;;;;;4951219;28;20047;-61
2024/02/12 10:33:22;;;;;;;36.70;14.82;;;8.20;99.90;;;;;;4949171;28;20432;-61
2024/02/12 10:35:50;;;;;;;34.88;13.73;;;8.20;99.90;;;;;;4950447;28;20031;-61
2024/02/12 10:38:16;;;;;;;33.50;15.15;;;8.10;99.90;;;;;;4948261;28;20026;-61
2024/02/12 10:41:04;;;;;;;41.22;15.75;;;8.00;99.90;;;;;;4949904;28;20038;-62
2024/02/12 10:43:32;;;;;;;35.38;14.32;;;8.00;99.90;;;;;;4931892;29;20102;-61
2024/02/12 10:46:00;;;;;;;23.50;8.73;;;8.10;99.90;;;;;;4954313;28;20030;-62
2024/02/12 10:48:27;;;;;;;34.55;13.38;;;8.20;99.90;;;;;;4947449;28;20190;-61
2024/02/12 10:50:56;;;;;;;34.83;15.02;;;8.30;99.90;;;;;;4951408;28;20043;-61
2024/02/12 10:53:41;;;;;;;27.33;12.50;;;8.30;99.90;;;;;;4946829;28;20086;-61
2024/02/12 10:56:08;;;;;;;37.95;15.65;;;8.40;99.90;;;;;;4947772;29;20091;-61
2024/02/12 10:58:35;;;;;;;13.02;6.15;;;8.30;99.90;;;;;;4945904;28;20024;-61
2024/02/12 11:01:01;;;;;;;12.15;3.70;;;8.10;99.90;;;;;;4948906;29;20026;-61
2024/02/12 11:03:36;;;;;;;11.63;4.40;;;7.80;99.90;;;;;;4946705;28;20660;-62
2024/02/12 11:06:04;;;;;;;11.77;4.90;;;7.50;99.90;;;;;;4946206;29;20115;-62
2024/02/12 11:08:35;;;;;;;13.98;5.70;;;7.40;99.90;;;;;;4944262;29;20038;-62
2024/02/12 11:11:03;;;;;;;13.05;5.38;;;7.40;99.90;;;;;;4947575;29;20023;-62
2024/02/12 11:13:39;;;;;;;12.68;5.18;;;7.50;99.90;;;;;;4947770;29;20030;-62
2024/02/12 11:16:06;;;;;;;17.52;6.88;;;7.60;99.90;;;;;;4931701;29;20034;-62
2024/02/12 11:18:38;;;;;;;18.50;5.80;;;7.60;99.90;;;;;;4946450;29;20032;-61
2024/02/12 11:21:04;;;;;;;12.82;5.20;;;7.60;99.90;;;;;;4946534;29;20367;-60
2024/02/12 11:23:30;;;;;;;23.40;8.93;;;7.60;99.90;;;;;;4947925;29;20578;-61
2024/02/12 11:25:59;;;;;;;24.33;8.15;;;7.60;99.90;;;;;;4948480;29;20086;-61
2024/02/12 11:28:27;;;;;;;24.35;9.80;;;7.60;99.90;;;;;;4934193;29;20095;-62
2024/02/12 11:30:53;;;;;;;21.42;8.80;;;7.60;99.90;;;;;;4946496;29;20103;-61
2024/02/12 11:33:19;;;;;;;15.13;7.72;;;7.60;99.90;;;;;;4947499;29;20455;-61
2024/02/12 11:35:45;;;;;;;22.42;9.40;;;7.60;99.90;;;;;;4946368;29;20115;-61
2024/02/12 11:38:14;;;;;;;28.42;11.52;;;7.70;99.90;;;;;;4948113;29;20030;-61
2024/02/12 11:40:40;;;;;;;25.25;10.23;;;7.80;99.90;;;;;;4952091;28;20078;-61
2024/02/12 11:43:06;;;;;;;21.67;8.63;;;8.00;99.90;;;;;;4947186;29;20033;-61
2024/02/12 11:45:35;;;;;;;24.35;9.57;;;8.00;99.90;;;;;;4930016;29;20614;-61
2024/02/12 11:48:10;;;;;;;27.30;11.52;;;8.00;99.90;;;;;;4947853;29;20406;-61
2024/02/12 11:50:37;;;;;;;22.48;10.38;;;8.10;99.90;;;;;;4945115;29;20023;-61
2024/02/12 11:53:04;;;;;;;26.38;10.00;;;8.10;99.90;;;;;;4946030;29;20019;-61
2024/02/12 11:55:31;;;;;;;27.00;10.45;;;8.00;99.90;;;;;;4939159;29;20034;-61
2024/02/12 11:57:58;;;;;;;24.08;9.63;;;8.00;99.90;;;;;;4945844;29;20027;-61
2024/02/12 12:00:24;;;;;;;25.08;9.70;;;8.00;99.90;;;;;;4946265;29;20070;-61
2024/02/12 12:02:51;;;;;;;18.70;9.43;;;7.90;99.90;;;;;;4946802;29;20067;-61
2024/02/12 12:05:24;;;;;;;21.42;9.23;;;7.90;99.90;;;;;;4945531;29;20091;-61
2024/02/12 12:07:51;;;;;;;20.55;7.57;;;7.80;99.90;;;;;;4943141;29;20031;-61
2024/02/12 12:10:30;;;;;;;15.93;6.85;;;7.80;99.90;;;;;;4942721;29;20122;-61
2024/02/12 12:13:00;;;;;;;16.13;6.20;;;7.80;99.90;;;;;;4943611;29;20039;-61
2024/02/12 12:15:28;;;;;;;18.10;7.03;;;7.90;99.90;;;;;;4944656;29;20024;-61
2024/02/12 12:17:53;;;;;;;16.52;6.32;;;8.00;99.90;;;;;;4940128;29;20063;-61
2024/02/12 12:20:20;;;;;;;16.80;6.68;;;8.20;99.90;;;;;;4938520;28;20143;-61
2024/02/12 12:22:47;;;;;;;13.85;5.72;;;8.40;99.90;;;;;;4941387;28;20138;-61
2024/02/12 12:25:13;;;;;;;16.42;7.10;;;8.50;99.90;;;;;;4939020;28;20031;-61
2024/02/12 12:27:39;;;;;;;16.52;6.78;;;8.70;99.90;;;;;;4942956;28;20035;-61
2024/02/12 12:30:14;;;;;;;15.15;6.57;;;9.20;99.90;;;;;;4942478;28;20853;-62
2024/02/12 12:32:44;;;;;;;17.73;6.63;;;9.60;99.90;;;;;;4942936;28;20033;-62
2024/02/12 12:35:10;;;;;;;17.38;7.47;;;9.80;99.90;;;;;;4943289;28;20431;-61
2024/02/12 12:37:39;;;;;;;16.83;7.25;;;9.70;99.90;;;;;;4940419;28;20027;-61
2024/02/12 12:40:10;;;;;;;16.27;6.43;;;9.40;99.90;;;;;;4943381;28;20043;-61
2024/02/12 12:42:37;;;;;;;22.73;8.48;;;9.30;99.90;;;;;;4943376;28;20102;-61
2024/02/12 12:45:10;;;;;;;19.83;8.27;;;9.30;99.90;;;;;;4943503;28;20491;-61
2024/02/12 12:47:37;;;;;;;23.80;9.18;;;9.30;99.90;;;;;;4943509;28;20035;-61
2024/02/12 12:50:09;;;;;;;20.52;8.60;;;9.40;99.90;;;;;;4941912;28;20644;-61
2024/02/12 12:52:35;;;;;;;20.92;8.30;;;9.60;99.90;;;;;;4941680;28;20090;-62
2024/02/12 12:55:03;;;;;;;18.38;7.47;;;9.80;99.90;;;;;;4942058;28;20127;-61